sensor_id;sensor_type;location;lat;lon;timestamp;temperature;humidity
13433;DHT22;6789;47.678;9.158;2022-07-06T00:15:45;18.30;99.90
13433;DHT22;6789;47.678;9.158;2022-07-06T00:27:22;18.30;99.90
13433;DHT22;6789;47.678;9.158;2022-07-06T00:38:13;18.00;99.90
13433;DHT22;6789;47.678;9.158;2022-07-06T00:43:24;18.10;99.90
13433;DHT22;6789;47.678;9.158;2022-07-06T01:04:56;17.90;99.90
13433;DHT22;6789;47.678;9.158;2022-07-06T01:10:26;17.80;99.90
13433;DHT22;6789;47.678;9.158;2022-07-06T01:15:40;17.60;99.90
13433;DHT22;6789;47.678;9.158;2022-07-06T01:21:23;17.50;99.90
13433;DHT22;6789;47.678;9.158;2022-07-06T01:31:58;17.40;99.90
13433;DHT22;6789;47.678;9.158;2022-07-06T01:36:50;17.50;99.90
13433;DHT22;6789;47.678;9.158;2022-07-06T01:41:42;17.50;99.90
13433;DHT22;6789;47.678;9.158;2022-07-06T01:46:59;17.40;99.90
13433;DHT22;6789;47.678;9.158;2022-07-06T01:51:51;17.30;99.90
13433;DHT22;6789;47.678;9.158;2022-07-06T01:56:58;17.30;99.90
13433;DHT22;6789;47.678;9.158;2022-07-06T02:17:00;17.10;99.90
13433;DHT22;6789;47.678;9.158;2022-07-06T02:22:11;17.00;99.90
13433;DHT22;6789;47.678;9.158;2022-07-06T02:27:03;16.90;99.90
13433;DHT22;6789;47.678;9.158;2022-07-06T02:31:59;16.90;99.90
13433;DHT22;6789;47.678;9.158;2022-07-06T02:36:51;16.90;99.90
13433;DHT22;6789;47.678;9.158;2022-07-06T02:41:43;16.90;99.90
13433;DHT22;6789;47.678;9.158;2022-07-06T02:46:35;16.90;99.90
13433;DHT22;6789;47.678;9.158;2022-07-06T02:51:27;16.90;99.90
13433;DHT22;6789;47.678;9.158;2022-07-06T03:01:22;16.60;99.90
13433;DHT22;6789;47.678;9.158;2022-07-06T03:06:13;16.50;99.90
13433;DHT22;6789;47.678;9.158;2022-07-06T03:17:27;16.60;99.90
13433;DHT22;6789;47.678;9.158;2022-07-06T03:22:19;16.50;99.90
13433;DHT22;6789;47.678;9.158;2022-07-06T03:27:11;16.40;99.90
13433;DHT22;6789;47.678;9.158;2022-07-06T03:32:36;16.50;99.90
13433;DHT22;6789;47.678;9.158;2022-07-06T03:37:27;16.30;99.90
13433;DHT22;6789;47.678;9.158;2022-07-06T03:47:47;16.30;99.90
13433;DHT22;6789;47.678;9.158;2022-07-06T03:52:38;16.30;99.90
13433;DHT22;6789;47.678;9.158;2022-07-06T03:57:31;16.20;99.90
13433;DHT22;6789;47.678;9.158;2022-07-06T04:02:38;16.30;99.90
13433;DHT22;6789;47.678;9.158;2022-07-06T04:08:39;16.90;99.90
13433;DHT22;6789;47.678;9.158;2022-07-06T04:15:02;18.20;99.90
13433;DHT22;6789;47.678;9.158;2022-07-06T05:17:22;26.40;99.90
13433;DHT22;6789;47.678;9.158;2022-07-06T06:48:16;25.30;99.90
13433;DHT22;6789;47.678;9.158;2022-07-06T06:53:31;24.40;99.90
13433;DHT22;6789;47.678;9.158;2022-07-06T06:58:52;24.20;99.90
13433;DHT22;6789;47.678;9.158;2022-07-06T07:04:09;24.40;99.90
13433;DHT22;6789;47.678;9.158;2022-07-06T07:10:07;25.10;99.90
13433;DHT22;6789;47.678;9.158;2022-07-06T07:15:34;25.90;99.90
13433;DHT22;6789;47.678;9.158;2022-07-06T10:52:23;26.10;99.90
13433;DHT22;6789;47.678;9.158;2022-07-06T10:58:07;26.10;99.90
